sensor_id;sensor_type;location;lat;lon;timestamp;pressure;altitude;pressure_sealevel;temperature;humidity
14343;BME280;7255;53.596;9.960;2022-07-23T00:02:12;101648.16;;;16.78;nan
14343;BME280;7255;53.596;9.960;2022-07-23T00:04:38;101651.00;;;16.83;nan
14343;BME280;7255;53.596;9.960;2022-07-23T00:07:04;101652.25;;;16.81;nan
14343;BME280;7255;53.596;9.960;2022-07-23T00:09:31;101647.03;;;16.91;nan
14343;BME280;7255;53.596;9.960;2022-07-23T00:11:58;101649.00;;;16.96;nan
14343;BME280;7255;53.596;9.960;2022-07-23T00:14:24;101634.19;;;16.86;nan
14343;BME280;7255;53.596;9.960;2022-07-23T00:16:50;101622.16;;;16.82;nan
14343;BME280;7255;53.596;9.960;2022-07-23T00:19:18;101624.66;;;16.84;nan
14343;BME280;7255;53.596;9.960;2022-07-23T00:21:44;101626.63;;;16.88;nan
14343;BME280;7255;53.596;9.960;2022-07-23T00:24:10;101623.47;;;16.80;nan
14343;BME280;7255;53.596;9.960;2022-07-23T00:26:37;101631.88;;;16.78;nan
14343;BME280;7255;53.596;9.960;2022-07-23T00:29:03;101625.25;;;16.74;nan
14343;BME280;7255;53.596;9.960;2022-07-23T00:31:30;101629.53;;;16.70;nan
14343;BME280;7255;53.596;9.960;2022-07-23T00:33:56;101620.00;;;16.67;nan
14343;BME280;7255;53.596;9.960;2022-07-23T00:36:24;101623.41;;;16.46;nan
14343;BME280;7255;53.596;9.960;2022-07-23T00:38:50;101620.25;;;16.37;nan
14343;BME280;7255;53.596;9.960;2022-07-23T00:41:17;101616.94;;;16.35;nan
14343;BME280;7255;53.596;9.960;2022-07-23T00:43:43;101616.94;;;16.35;nan
14343;BME280;7255;53.596;9.960;2022-07-23T00:46:09;101615.72;;;16.14;nan
14343;BME280;7255;53.596;9.960;2022-07-23T00:48:36;101605.25;;;16.17;nan
14343;BME280;7255;53.596;9.960;2022-07-23T00:51:02;101611.12;;;16.14;nan
14343;BME280;7255;53.596;9.960;2022-07-23T00:53:30;101612.28;;;16.19;nan
14343;BME280;7255;53.596;9.960;2022-07-23T00:55:57;101609.47;;;16.13;nan
14343;BME280;7255;53.596;9.960;2022-07-23T00:58:24;101615.03;;;16.07;nan
14343;BME280;7255;53.596;9.960;2022-07-23T01:00:50;101606.87;;;16.19;nan
14343;BME280;7255;53.596;9.960;2022-07-23T01:03:17;101615.56;;;16.21;nan
14343;BME280;7255;53.596;9.960;2022-07-23T01:05:44;101615.72;;;16.14;nan
14343;BME280;7255;53.596;9.960;2022-07-23T01:08:10;101612.09;;;16.08;nan
14343;BME280;7255;53.596;9.960;2022-07-23T01:10:39;101604.03;;;16.13;nan
14343;BME280;7255;53.596;9.960;2022-07-23T01:13:07;101602.19;;;16.02;nan
14343;BME280;7255;53.596;9.960;2022-07-23T01:15:35;101597.94;;;16.06;nan
14343;BME280;7255;53.596;9.960;2022-07-23T01:18:02;101601.72;;;16.05;nan
14343;BME280;7255;53.596;9.960;2022-07-23T01:20:29;101587.94;;;15.95;nan
14343;BME280;7255;53.596;9.960;2022-07-23T01:22:57;101599.37;;;15.97;nan
14343;BME280;7255;53.596;9.960;2022-07-23T01:25:23;101604.13;;;15.90;nan
14343;BME280;7255;53.596;9.960;2022-07-23T01:27:51;101600.69;;;15.94;nan
14343;BME280;7255;53.596;9.960;2022-07-23T01:30:17;101602.13;;;15.85;nan
14343;BME280;7255;53.596;9.960;2022-07-23T01:32:44;101589.03;;;15.70;nan
14343;BME280;7255;53.596;9.960;2022-07-23T01:35:11;101598.94;;;15.76;nan
14343;BME280;7255;53.596;9.960;2022-07-23T01:37:37;101586.34;;;15.82;nan
14343;BME280;7255;53.596;9.960;2022-07-23T01:40:06;101590.94;;;15.82;nan
14343;BME280;7255;53.596;9.960;2022-07-23T01:42:33;101589.78;;;15.77;nan
14343;BME280;7255;53.596;9.960;2022-07-23T01:44:59;101594.94;;;15.91;nan
14343;BME280;7255;53.596;9.960;2022-07-23T01:47:26;101592.19;;;16.03;nan
14343;BME280;7255;53.596;9.960;2022-07-23T01:49:52;101589.09;;;16.11;nan
14343;BME280;7255;53.596;9.960;2022-07-23T01:52:18;101586.00;;;16.19;nan
14343;BME280;7255;53.596;9.960;2022-07-23T01:54:45;101590.88;;;16.05;nan
14343;BME280;7255;53.596;9.960;2022-07-23T01:57:12;101584.16;;;16.08;nan
14343;BME280;7255;53.596;9.960;2022-07-23T01:59:39;101577.81;;;16.02;nan
14343;BME280;7255;53.596;9.960;2022-07-23T02:02:05;101568.84;;;16.02;nan
14343;BME280;7255;53.596;9.960;2022-07-23T02:04:31;101558.50;;;15.98;nan
14343;BME280;7255;53.596;9.960;2022-07-23T02:07:00;101563.44;;;16.02;nan
14343;BME280;7255;53.596;9.960;2022-07-23T02:09:27;101554.91;;;16.10;nan
14343;BME280;7255;53.596;9.960;2022-07-23T02:11:53;101545.50;;;16.01;nan
14343;BME280;7255;53.596;9.960;2022-07-23T02:14:21;101546.84;;;15.98;nan
14343;BME280;7255;53.596;9.960;2022-07-23T02:16:47;101546.50;;;15.94;nan
14343;BME280;7255;53.596;9.960;2022-07-23T02:19:13;101553.91;;;15.99;nan
14343;BME280;7255;53.596;9.960;2022-07-23T02:21:40;101551.91;;;15.94;nan
14343;BME280;7255;53.596;9.960;2022-07-23T02:24:06;101555.34;;;15.90;nan
14343;BME280;7255;53.596;9.960;2022-07-23T02:26:33;101548.28;;;15.89;nan
14343;BME280;7255;53.596;9.960;2022-07-23T02:29:00;101550.75;;;15.90;nan
14343;BME280;7255;53.596;9.960;2022-07-23T02:31:28;101556.06;;;15.73;nan
14343;BME280;7255;53.596;9.960;2022-07-23T02:33:54;101549.72;;;15.80;nan
14343;BME280;7255;53.596;9.960;2022-07-23T02:36:21;101544.03;;;15.69;nan
14343;BME280;7255;53.596;9.960;2022-07-23T02:38:48;101548.41;;;15.58;nan
14343;BME280;7255;53.596;9.960;2022-07-23T02:41:14;101560.09;;;15.59;nan
14343;BME280;7255;53.596;9.960;2022-07-23T02:43:41;101545.28;;;15.50;nan
14343;BME280;7255;53.596;9.960;2022-07-23T02:46:07;101548.69;;;15.45;nan
14343;BME280;7255;53.596;9.960;2022-07-23T02:48:35;101541.28;;;15.40;nan
14343;BME280;7255;53.596;9.960;2022-07-23T02:51:01;101531.28;;;15.41;nan
14343;BME280;7255;53.596;9.960;2022-07-23T02:53:27;101546.34;;;15.37;nan
14343;BME280;7255;53.596;9.960;2022-07-23T02:55:54;101539.72;;;15.33;nan
14343;BME280;7255;53.596;9.960;2022-07-23T02:58:20;101542.22;;;15.34;nan
14343;BME280;7255;53.596;9.960;2022-07-23T03:00:46;101534.31;;;15.33;nan
14343;BME280;7255;53.596;9.960;2022-07-23T03:03:13;101543.97;;;15.29;nan
14343;BME280;7255;53.596;9.960;2022-07-23T03:05:40;101549.75;;;15.32;nan
14343;BME280;7255;53.596;9.960;2022-07-23T03:08:06;101537.84;;;15.45;nan
14343;BME280;7255;53.596;9.960;2022-07-23T03:10:33;101531.25;;;15.53;nan
14343;BME280;7255;53.596;9.960;2022-07-23T03:12:59;101530.38;;;15.64;nan
14343;BME280;7255;53.596;9.960;2022-07-23T03:15:26;101536.50;;;15.71;nan
14343;BME280;7255;53.596;9.960;2022-07-23T03:17:52;101530.16;;;15.77;nan
14343;BME280;7255;53.596;9.960;2022-07-23T03:20:18;101525.44;;;15.85;nan
14343;BME280;7255;53.596;9.960;2022-07-23T03:22:46;101530.50;;;15.81;nan
14343;BME280;7255;53.596;9.960;2022-07-23T03:25:12;101528.03;;;15.80;nan
14343;BME280;7255;53.596;9.960;2022-07-23T03:27:39;101529.19;;;15.84;nan
14343;BME280;7255;53.596;9.960;2022-07-23T03:30:06;101532.41;;;15.69;nan
14343;BME280;7255;53.596;9.960;2022-07-23T03:32:33;101521.22;;;15.65;nan
14343;BME280;7255;53.596;9.960;2022-07-23T03:34:59;101520.63;;;15.75;nan
14343;BME280;7255;53.596;9.960;2022-07-23T03:37:26;101519.34;;;15.77;nan
14343;BME280;7255;53.596;9.960;2022-07-23T03:39:53;101523.56;;;15.73;nan
14343;BME280;7255;53.596;9.960;2022-07-23T03:42:19;101523.81;;;15.60;nan
14343;BME280;7255;53.596;9.960;2022-07-23T03:44:46;101526.06;;;15.51;nan
14343;BME280;7255;53.596;9.960;2022-07-23T03:47:12;101511.94;;;15.49;nan
14343;BME280;7255;53.596;9.960;2022-07-23T03:49:38;101517.84;;;15.46;nan
14343;BME280;7255;53.596;9.960;2022-07-23T03:52:05;101521.97;;;15.37;nan
14343;BME280;7255;53.596;9.960;2022-07-23T03:54:31;101521.25;;;15.42;nan
14343;BME280;7255;53.596;9.960;2022-07-23T03:56:59;101528.19;;;15.49;nan
14343;BME280;7255;53.596;9.960;2022-07-23T03:59:25;101529.38;;;15.53;nan
14343;BME280;7255;53.596;9.960;2022-07-23T04:01:52;101530.66;;;15.51;nan
14343;BME280;7255;53.596;9.960;2022-07-23T04:04:18;101534.28;;;15.56;nan
14343;BME280;7255;53.596;9.960;2022-07-23T04:06:44;101541.47;;;15.63;nan
14343;BME280;7255;53.596;9.960;2022-07-23T04:09:10;101549.25;;;15.83;nan
14343;BME280;7255;53.596;9.960;2022-07-23T04:11:37;101546.84;;;15.98;nan
14343;BME280;7255;53.596;9.960;2022-07-23T04:14:05;101554.44;;;16.13;nan
14343;BME280;7255;53.596;9.960;2022-07-23T04:16:32;101538.72;;;16.27;nan
14343;BME280;7255;53.596;9.960;2022-07-23T04:18:58;101543.47;;;16.20;nan
14343;BME280;7255;53.596;9.960;2022-07-23T04:21:24;101549.34;;;16.16;nan
14343;BME280;7255;53.596;9.960;2022-07-23T04:23:51;101550.50;;;16.21;nan
14343;BME280;7255;53.596;9.960;2022-07-23T04:26:17;101553.31;;;16.26;nan
14343;BME280;7255;53.596;9.960;2022-07-23T04:28:43;101552.34;;;16.32;nan
14343;BME280;7255;53.596;9.960;2022-07-23T04:31:11;101554.81;;;16.33;nan
14343;BME280;7255;53.596;9.960;2022-07-23T04:33:37;101553.75;;;16.34;nan
14343;BME280;7255;53.596;9.960;2022-07-23T04:36:04;101558.75;;;16.26;nan
14343;BME280;7255;53.596;9.960;2022-07-23T04:38:30;101564.31;;;16.19;nan
14343;BME280;7255;53.596;9.960;2022-07-23T04:40:57;101559.97;;;16.18;nan
14343;BME280;7255;53.596;9.960;2022-07-23T04:43:23;101559.50;;;16.09;nan
14343;BME280;7255;53.596;9.960;2022-07-23T04:45:50;101563.16;;;16.15;nan
14343;BME280;7255;53.596;9.960;2022-07-23T04:48:17;101556.69;;;16.04;nan
14343;BME280;7255;53.596;9.960;2022-07-23T04:50:44;101567.69;;;15.97;nan
14343;BME280;7255;53.596;9.960;2022-07-23T04:53:10;101569.72;;;15.78;nan
14343;BME280;7255;53.596;9.960;2022-07-23T04:55:36;101565.97;;;15.56;nan
14343;BME280;7255;53.596;9.960;2022-07-23T04:58:03;101570.00;;;15.42;nan
14343;BME280;7255;53.596;9.960;2022-07-23T05:00:29;101559.97;;;15.42;nan
14343;BME280;7255;53.596;9.960;2022-07-23T05:02:55;101557.97;;;15.61;nan
14343;BME280;7255;53.596;9.960;2022-07-23T05:05:23;101555.59;;;15.53;nan
14343;BME280;7255;53.596;9.960;2022-07-23T05:07:49;101558.56;;;15.63;nan
14343;BME280;7255;53.596;9.960;2022-07-23T05:10:16;101558.44;;;15.82;nan
14343;BME280;7255;53.596;9.960;2022-07-23T05:12:42;101573.88;;;15.81;nan
14343;BME280;7255;53.596;9.960;2022-07-23T05:15:09;101560.28;;;15.93;nan
14343;BME280;7255;53.596;9.960;2022-07-23T05:17:36;101561.09;;;15.93;nan
14343;BME280;7255;53.596;9.960;2022-07-23T05:20:02;101557.19;;;16.01;nan
14343;BME280;7255;53.596;9.960;2022-07-23T05:22:30;101551.50;;;16.14;nan
14343;BME280;7255;53.596;9.960;2022-07-23T05:24:57;101556.91;;;16.14;nan
14343;BME280;7255;53.596;9.960;2022-07-23T05:27:23;101560.88;;;16.24;nan
14343;BME280;7255;53.596;9.960;2022-07-23T05:29:49;101573.38;;;16.25;nan
14343;BME280;7255;53.596;9.960;2022-07-23T05:32:16;101575.56;;;16.40;nan
14343;BME280;7255;53.596;9.960;2022-07-23T05:34:42;101584.59;;;16.45;nan
14343;BME280;7255;53.596;9.960;2022-07-23T05:37:08;101583.13;;;16.38;nan
14343;BME280;7255;53.596;9.960;2022-07-23T05:39:36;101581.78;;;16.40;nan
14343;BME280;7255;53.596;9.960;2022-07-23T05:42:03;101581.31;;;16.43;nan
14343;BME280;7255;53.596;9.960;2022-07-23T05:44:29;101575.56;;;16.40;nan
14343;BME280;7255;53.596;9.960;2022-07-23T05:46:55;101583.16;;;16.54;nan
14343;BME280;7255;53.596;9.960;2022-07-23T05:49:21;101589.03;;;16.51;nan
14343;BME280;7255;53.596;9.960;2022-07-23T05:51:49;101586.28;;;16.63;nan
14343;BME280;7255;53.596;9.960;2022-07-23T05:54:15;101583.63;;;16.68;nan
14343;BME280;7255;53.596;9.960;2022-07-23T05:56:43;101580.56;;;16.93;nan
14343;BME280;7255;53.596;9.960;2022-07-23T05:59:09;101577.62;;;16.95;nan
14343;BME280;7255;53.596;9.960;2022-07-23T06:01:37;101579.75;;;17.10;nan
14343;BME280;7255;53.596;9.960;2022-07-23T06:04:03;101582.19;;;17.28;nan
14343;BME280;7255;53.596;9.960;2022-07-23T06:06:30;101586.66;;;17.18;nan
14343;BME280;7255;53.596;9.960;2022-07-23T06:08:56;101583.53;;;17.26;nan
14343;BME280;7255;53.596;9.960;2022-07-23T06:11:22;101585.84;;;17.00;nan
14343;BME280;7255;53.596;9.960;2022-07-23T06:13:50;101584.72;;;16.96;nan
14343;BME280;7255;53.596;9.960;2022-07-23T06:16:16;101590.75;;;17.03;nan
14343;BME280;7255;53.596;9.960;2022-07-23T06:18:42;101577.59;;;16.78;nan
14343;BME280;7255;53.596;9.960;2022-07-23T06:21:09;101595.91;;;16.71;nan
14343;BME280;7255;53.596;9.960;2022-07-23T06:23:35;101587.91;;;16.64;nan
14343;BME280;7255;53.596;9.960;2022-07-23T06:26:01;101585.63;;;16.56;nan
14343;BME280;7255;53.596;9.960;2022-07-23T06:28:30;101576.91;;;16.71;nan
14343;BME280;7255;53.596;9.960;2022-07-23T06:30:58;101591.28;;;17.00;nan
14343;BME280;7255;53.596;9.960;2022-07-23T06:33:24;101586.50;;;17.24;nan
14343;BME280;7255;53.596;9.960;2022-07-23T06:35:50;101586.97;;;17.21;nan
14343;BME280;7255;53.596;9.960;2022-07-23T06:38:17;101587.16;;;17.31;nan
14343;BME280;7255;53.596;9.960;2022-07-23T06:40:43;101591.94;;;17.24;nan
14343;BME280;7255;53.596;9.960;2022-07-23T06:43:10;101586.50;;;17.24;nan
14343;BME280;7255;53.596;9.960;2022-07-23T06:45:36;101590.75;;;17.37;nan
14343;BME280;7255;53.596;9.960;2022-07-23T06:48:04;101609.44;;;17.73;nan
14343;BME280;7255;53.596;9.960;2022-07-23T06:50:31;101605.03;;;17.66;nan
14343;BME280;7255;53.596;9.960;2022-07-23T06:52:57;101608.19;;;17.41;nan
14343;BME280;7255;53.596;9.960;2022-07-23T06:55:23;101603.59;;;17.25;nan
14343;BME280;7255;53.596;9.960;2022-07-23T06:57:50;101600.66;;;17.09;nan
14343;BME280;7255;53.596;9.960;2022-07-23T07:00:16;101605.56;;;16.96;nan
14343;BME280;7255;53.596;9.960;2022-07-23T07:02:42;101604.28;;;17.15;nan
14343;BME280;7255;53.596;9.960;2022-07-23T07:05:10;101611.84;;;17.13;nan
14343;BME280;7255;53.596;9.960;2022-07-23T07:07:36;101620.72;;;17.42;nan
14343;BME280;7255;53.596;9.960;2022-07-23T07:10:03;101613.94;;;17.45;nan
14343;BME280;7255;53.596;9.960;2022-07-23T07:12:30;101617.81;;;17.66;nan
14343;BME280;7255;53.596;9.960;2022-07-23T07:14:56;101626.41;;;17.80;nan
14343;BME280;7255;53.596;9.960;2022-07-23T07:17:22;101633.28;;;17.48;nan
14343;BME280;7255;53.596;9.960;2022-07-23T07:19:49;101633.84;;;16.83;nan
14343;BME280;7255;53.596;9.960;2022-07-23T07:22:16;101629.78;;;16.40;nan
14343;BME280;7255;53.596;9.960;2022-07-23T07:24:44;101632.88;;;15.91;nan
14343;BME280;7255;53.596;9.960;2022-07-23T07:27:10;101632.75;;;15.97;nan
14343;BME280;7255;53.596;9.960;2022-07-23T07:29:36;101639.56;;;16.12;nan
14343;BME280;7255;53.596;9.960;2022-07-23T07:32:03;101637.06;;;16.10;nan
14343;BME280;7255;53.596;9.960;2022-07-23T07:34:30;101624.38;;;16.40;nan
14343;BME280;7255;53.596;9.960;2022-07-23T07:36:56;101635.47;;;16.67;nan
14343;BME280;7255;53.596;9.960;2022-07-23T07:39:23;101628.56;;;16.76;nan
14343;BME280;7255;53.596;9.960;2022-07-23T07:41:50;101629.50;;;16.53;nan
14343;BME280;7255;53.596;9.960;2022-07-23T07:44:16;101636.63;;;16.71;nan
14343;BME280;7255;53.596;9.960;2022-07-23T07:46:42;101630.19;;;16.77;nan
14343;BME280;7255;53.596;9.960;2022-07-23T07:49:09;101633.00;;;16.82;nan
14343;BME280;7255;53.596;9.960;2022-07-23T07:51:35;101619.06;;;16.90;nan
14343;BME280;7255;53.596;9.960;2022-07-23T07:54:02;101628.94;;;17.30;nan
14343;BME280;7255;53.596;9.960;2022-07-23T07:56:29;101632.53;;;17.70;nan
14343;BME280;7255;53.596;9.960;2022-07-23T07:58:56;101625.22;;;17.93;nan
14343;BME280;7255;53.596;9.960;2022-07-23T08:01:22;101621.38;;;18.11;nan
14343;BME280;7255;53.596;9.960;2022-07-23T08:03:48;101637.94;;;18.31;nan
14343;BME280;7255;53.596;9.960;2022-07-23T08:06:15;101636.53;;;18.51;nan
14343;BME280;7255;53.596;9.960;2022-07-23T08:08:41;101636.09;;;18.37;nan
14343;BME280;7255;53.596;9.960;2022-07-23T08:11:07;101632.12;;;18.00;nan
14343;BME280;7255;53.596;9.960;2022-07-23T08:13:35;101634.03;;;17.61;nan
14343;BME280;7255;53.596;9.960;2022-07-23T08:16:02;101648.03;;;17.02;nan
14343;BME280;7255;53.596;9.960;2022-07-23T08:18:28;101633.84;;;16.83;nan
14343;BME280;7255;53.596;9.960;2022-07-23T08:20:54;101638.25;;;16.72;nan
14343;BME280;7255;53.596;9.960;2022-07-23T08:23:21;101632.75;;;16.38;nan
14343;BME280;7255;53.596;9.960;2022-07-23T08:25:47;101644.09;;;16.92;nan
14343;BME280;7255;53.596;9.960;2022-07-23T08:28:14;101637.84;;;17.43;nan
14343;BME280;7255;53.596;9.960;2022-07-23T08:30:44;101642.91;;;17.56;nan
14343;BME280;7255;53.596;9.960;2022-07-23T08:33:12;101639.06;;;17.52;nan
14343;BME280;7255;53.596;9.960;2022-07-23T08:35:40;101642.66;;;18.14;nan
14343;BME280;7255;53.596;9.960;2022-07-23T08:38:08;101646.34;;;18.30;nan
14343;BME280;7255;53.596;9.960;2022-07-23T08:40:37;101645.66;;;18.39;nan
14343;BME280;7255;53.596;9.960;2022-07-23T08:43:05;101643.22;;;18.65;nan
14343;BME280;7255;53.596;9.960;2022-07-23T08:45:36;101643.84;;;18.72;nan
14343;BME280;7255;53.596;9.960;2022-07-23T08:48:09;101631.78;;;18.68;nan
14343;BME280;7255;53.596;9.960;2022-07-23T08:50:37;101644.56;;;18.90;nan
14343;BME280;7255;53.596;9.960;2022-07-23T08:53:06;101629.66;;;18.97;nan
14343;BME280;7255;53.596;9.960;2022-07-23T08:55:33;101632.28;;;19.19;nan
14343;BME280;7255;53.596;9.960;2022-07-23T08:57:59;101634.06;;;19.41;nan
14343;BME280;7255;53.596;9.960;2022-07-23T09:00:25;101631.91;;;19.43;nan
14343;BME280;7255;53.596;9.960;2022-07-23T09:02:52;101635.03;;;19.24;nan
14343;BME280;7255;53.596;9.960;2022-07-23T09:05:20;101637.56;;;19.74;nan
14343;BME280;7255;53.596;9.960;2022-07-23T09:08:07;101634.69;;;19.96;nan
14343;BME280;7255;53.596;9.960;2022-07-23T09:10:49;101633.94;;;20.06;nan
14343;BME280;7255;53.596;9.960;2022-07-23T09:13:30;101629.44;;;19.79;nan
14343;BME280;7255;53.596;9.960;2022-07-23T09:15:59;101634.66;;;19.48;nan
14343;BME280;7255;53.596;9.960;2022-07-23T09:18:43;101638.91;;;19.71;nan
14343;BME280;7255;53.596;9.960;2022-07-23T09:21:22;101631.09;;;19.80;nan
14343;BME280;7255;53.596;9.960;2022-07-23T09:23:52;101633.87;;;19.95;nan
14343;BME280;7255;53.596;9.960;2022-07-23T09:26:24;101639.41;;;20.16;nan
14343;BME280;7255;53.596;9.960;2022-07-23T09:28:55;101645.00;;;20.57;nan
14343;BME280;7255;53.596;9.960;2022-07-23T09:31:23;101634.41;;;20.61;nan
14343;BME280;7255;53.596;9.960;2022-07-23T09:33:51;101642.75;;;20.38;nan
14343;BME280;7255;53.596;9.960;2022-07-23T09:36:28;101634.44;;;20.03;nan
14343;BME280;7255;53.596;9.960;2022-07-23T09:38:55;101630.03;;;19.96;nan
14343;BME280;7255;53.596;9.960;2022-07-23T09:41:21;101648.59;;;19.94;nan
14343;BME280;7255;53.596;9.960;2022-07-23T09:43:54;101647.72;;;19.84;nan
14343;BME280;7255;53.596;9.960;2022-07-23T09:46:23;101646.38;;;19.49;nan
14343;BME280;7255;53.596;9.960;2022-07-23T09:48:50;101640.41;;;19.52;nan
14343;BME280;7255;53.596;9.960;2022-07-23T09:51:18;101640.25;;;19.69;nan
14343;BME280;7255;53.596;9.960;2022-07-23T09:53:47;101635.03;;;19.24;nan
14343;BME280;7255;53.596;9.960;2022-07-23T09:56:14;101647.13;;;19.39;nan
14343;BME280;7255;53.596;9.960;2022-07-23T09:58:41;101641.09;;;19.32;nan
14343;BME280;7255;53.596;9.960;2022-07-23T10:01:13;101643.72;;;19.16;nan
14343;BME280;7255;53.596;9.960;2022-07-23T10:03:40;101654.31;;;19.13;nan
14343;BME280;7255;53.596;9.960;2022-07-23T10:06:08;101660.87;;;19.17;nan
14343;BME280;7255;53.596;9.960;2022-07-23T10:08:35;101649.06;;;19.06;nan
14343;BME280;7255;53.596;9.960;2022-07-23T10:11:04;101658.41;;;19.15;nan
14343;BME280;7255;53.596;9.960;2022-07-23T10:13:31;101664.84;;;19.36;nan
14343;BME280;7255;53.596;9.960;2022-07-23T10:16:18;101660.66;;;19.23;nan
14343;BME280;7255;53.596;9.960;2022-07-23T10:18:44;101667.56;;;19.04;nan
14343;BME280;7255;53.596;9.960;2022-07-23T10:21:11;101655.94;;;19.14;nan
14343;BME280;7255;53.596;9.960;2022-07-23T10:23:47;101656.87;;;19.72;nan
14343;BME280;7255;53.596;9.960;2022-07-23T10:26:23;101667.22;;;20.13;nan
14343;BME280;7255;53.596;9.960;2022-07-23T10:29:07;101667.31;;;20.44;nan
14343;BME280;7255;53.596;9.960;2022-07-23T10:31:42;101665.19;;;20.56;nan
14343;BME280;7255;53.596;9.960;2022-07-23T10:34:19;101664.88;;;20.42;nan
14343;BME280;7255;53.596;9.960;2022-07-23T10:36:51;101665.28;;;20.08;nan
14343;BME280;7255;53.596;9.960;2022-07-23T10:39:22;101669.47;;;19.73;nan
14343;BME280;7255;53.596;9.960;2022-07-23T10:41:51;101670.41;;;19.94;nan
14343;BME280;7255;53.596;9.960;2022-07-23T10:44:19;101661.75;;;20.13;nan
14343;BME280;7255;53.596;9.960;2022-07-23T10:46:54;101671.63;;;20.19;nan
14343;BME280;7255;53.596;9.960;2022-07-23T10:49:30;101681.69;;;19.71;nan
14343;BME280;7255;53.596;9.960;2022-07-23T10:52:25;101679.12;;;19.96;nan
14343;BME280;7255;53.596;9.960;2022-07-23T10:54:54;101675.62;;;20.69;nan
14343;BME280;7255;53.596;9.960;2022-07-23T10:57:25;101673.22;;;20.88;nan
14343;BME280;7255;53.596;9.960;2022-07-23T11:00:20;101681.03;;;20.59;nan
14343;BME280;7255;53.596;9.960;2022-07-23T11:02:49;101668.63;;;20.21;nan
14343;BME280;7255;53.596;9.960;2022-07-23T11:05:16;101675.19;;;20.25;nan
14343;BME280;7255;53.596;9.960;2022-07-23T11:08:11;101684.31;;;19.93;nan
14343;BME280;7255;53.596;9.960;2022-07-23T11:10:43;101678.59;;;19.89;nan
14343;BME280;7255;53.596;9.960;2022-07-23T11:13:39;101687.41;;;20.12;nan
14343;BME280;7255;53.596;9.960;2022-07-23T11:16:15;101678.38;;;20.06;nan
14343;BME280;7255;53.596;9.960;2022-07-23T11:19:02;101683.53;;;20.03;nan
14343;BME280;7255;53.596;9.960;2022-07-23T11:21:42;101688.47;;;20.06;nan
14343;BME280;7255;53.596;9.960;2022-07-23T11:24:11;101685.72;;;19.63;nan
14343;BME280;7255;53.596;9.960;2022-07-23T11:26:50;101684.41;;;19.66;nan
14343;BME280;7255;53.596;9.960;2022-07-23T11:29:43;101684.13;;;20.10;nan
14343;BME280;7255;53.596;9.960;2022-07-23T11:35:27;101680.87;;;21.22;nan
14343;BME280;7255;53.596;9.960;2022-07-23T11:38:04;101681.97;;;21.11;nan
14343;BME280;7255;53.596;9.960;2022-07-23T11:40:31;101683.81;;;20.74;nan
14343;BME280;7255;53.596;9.960;2022-07-23T11:42:59;101678.88;;;20.61;nan
14343;BME280;7255;53.596;9.960;2022-07-23T11:45:31;101680.87;;;20.18;nan
14343;BME280;7255;53.596;9.960;2022-07-23T11:47:58;101683.56;;;20.13;nan
14343;BME280;7255;53.596;9.960;2022-07-23T11:50:24;101686.91;;;20.25;nan
14343;BME280;7255;53.596;9.960;2022-07-23T11:52:51;101676.91;;;19.88;nan
14343;BME280;7255;53.596;9.960;2022-07-23T11:55:18;101684.66;;;20.07;nan
14343;BME280;7255;53.596;9.960;2022-07-23T11:57:45;101685.38;;;20.45;nan
14343;BME280;7255;53.596;9.960;2022-07-23T12:00:14;101705.41;;;20.13;nan
14343;BME280;7255;53.596;9.960;2022-07-23T12:02:43;101696.28;;;19.87;nan
14343;BME280;7255;53.596;9.960;2022-07-23T12:05:12;101696.88;;;19.56;nan
14343;BME280;7255;53.596;9.960;2022-07-23T12:07:40;101677.25;;;19.54;nan
14343;BME280;7255;53.596;9.960;2022-07-23T12:10:11;101697.38;;;19.86;nan
14343;BME280;7255;53.596;9.960;2022-07-23T12:12:40;101692.09;;;19.74;nan
14343;BME280;7255;53.596;9.960;2022-07-23T12:15:08;101701.81;;;20.07;nan
14343;BME280;7255;53.596;9.960;2022-07-23T12:17:37;101702.69;;;20.18;nan
14343;BME280;7255;53.596;9.960;2022-07-23T12:20:08;101718.97;;;19.97;nan
14343;BME280;7255;53.596;9.960;2022-07-23T12:22:37;101702.31;;;19.56;nan
14343;BME280;7255;53.596;9.960;2022-07-23T12:25:06;101711.31;;;19.89;nan
14343;BME280;7255;53.596;9.960;2022-07-23T12:27:33;101718.97;;;19.97;nan
14343;BME280;7255;53.596;9.960;2022-07-23T12:30:18;101710.22;;;19.58;nan
14343;BME280;7255;53.596;9.960;2022-07-23T12:32:46;101702.53;;;19.87;nan
14343;BME280;7255;53.596;9.960;2022-07-23T12:35:14;101718.50;;;20.11;nan
14343;BME280;7255;53.596;9.960;2022-07-23T12:37:42;101701.22;;;20.48;nan
14343;BME280;7255;53.596;9.960;2022-07-23T12:40:20;101707.91;;;21.13;nan
14343;BME280;7255;53.596;9.960;2022-07-23T12:42:48;101711.75;;;21.53;nan
14343;BME280;7255;53.596;9.960;2022-07-23T12:45:14;101702.69;;;20.96;nan
14343;BME280;7255;53.596;9.960;2022-07-23T12:47:58;101716.06;;;20.77;nan
14343;BME280;7255;53.596;9.960;2022-07-23T12:50:35;101713.97;;;20.32;nan
14343;BME280;7255;53.596;9.960;2022-07-23T12:53:04;101715.28;;;20.19;nan
14343;BME280;7255;53.596;9.960;2022-07-23T12:55:30;101712.66;;;20.45;nan
14343;BME280;7255;53.596;9.960;2022-07-23T12:58:06;101714.94;;;20.63;nan
14343;BME280;7255;53.596;9.960;2022-07-23T13:00:48;101715.78;;;20.74;nan
14343;BME280;7255;53.596;9.960;2022-07-23T13:03:21;101711.66;;;20.71;nan
14343;BME280;7255;53.596;9.960;2022-07-23T13:05:49;101708.53;;;20.42;nan
14343;BME280;7255;53.596;9.960;2022-07-23T13:08:15;101721.03;;;20.23;nan
14343;BME280;7255;53.596;9.960;2022-07-23T13:10:41;101715.84;;;20.26;nan
14343;BME280;7255;53.596;9.960;2022-07-23T13:13:09;101711.56;;;20.51;nan
14343;BME280;7255;53.596;9.960;2022-07-23T13:15:36;101718.56;;;21.10;nan
14343;BME280;7255;53.596;9.960;2022-07-23T13:18:02;101721.31;;;21.35;nan
14343;BME280;7255;53.596;9.960;2022-07-23T13:20:29;101721.00;;;20.91;nan
14343;BME280;7255;53.596;9.960;2022-07-23T13:22:57;101719.28;;;20.64;nan
14343;BME280;7255;53.596;9.960;2022-07-23T13:25:24;101728.87;;;20.14;nan
14343;BME280;7255;53.596;9.960;2022-07-23T13:27:50;101731.34;;;20.15;nan
14343;BME280;7255;53.596;9.960;2022-07-23T13:30:16;101722.22;;;19.89;nan
14343;BME280;7255;53.596;9.960;2022-07-23T13:32:43;101722.31;;;20.10;nan